sensor_id;sensor_type;location;lat;lon;timestamp;P1;durP1;ratioP1;P2;durP2;ratioP2
7813;SDS011;3952;48.364;16.022;2023-03-24T00:01:22;5.10;;;4.67;;
7813;SDS011;3952;48.364;16.022;2023-03-24T00:03:50;6.43;;;5.27;;
7813;SDS011;3952;48.364;16.022;2023-03-24T00:06:17;6.13;;;5.53;;
7813;SDS011;3952;48.364;16.022;2023-03-24T00:08:46;5.80;;;5.30;;
7813;SDS011;3952;48.364;16.022;2023-03-24T00:11:14;5.93;;;5.53;;
7813;SDS011;3952;48.364;16.022;2023-03-24T00:13:45;7.40;;;5.47;;
7813;SDS011;3952;48.364;16.022;2023-03-24T00:16:14;5.87;;;5.37;;
7813;SDS011;3952;48.364;16.022;2023-03-24T00:18:43;6.00;;;5.40;;
7813;SDS011;3952;48.364;16.022;2023-03-24T00:21:14;6.97;;;5.57;;
7813;SDS011;3952;48.364;16.022;2023-03-24T00:23:42;5.80;;;5.30;;
7813;SDS011;3952;48.364;16.022;2023-03-24T00:26:12;5.70;;;5.30;;
7813;SDS011;3952;48.364;16.022;2023-03-24T00:28:40;6.70;;;5.30;;
7813;SDS011;3952;48.364;16.022;2023-03-24T00:31:11;6.53;;;5.47;;
7813;SDS011;3952;48.364;16.022;2023-03-24T00:33:40;11.60;;;5.87;;
7813;SDS011;3952;48.364;16.022;2023-03-24T00:36:10;6.53;;;5.93;;
7813;SDS011;3952;48.364;16.022;2023-03-24T00:38:38;5.77;;;5.37;;
7813;SDS011;3952;48.364;16.022;2023-03-24T00:41:07;7.07;;;6.47;;
7813;SDS011;3952;48.364;16.022;2023-03-24T00:43:35;6.13;;;5.53;;
7813;SDS011;3952;48.364;16.022;2023-03-24T00:46:05;6.13;;;5.73;;
7813;SDS011;3952;48.364;16.022;2023-03-24T00:48:37;5.90;;;5.50;;
7813;SDS011;3952;48.364;16.022;2023-03-24T00:51:06;7.20;;;6.63;;
7813;SDS011;3952;48.364;16.022;2023-03-24T00:53:35;5.97;;;5.43;;
7813;SDS011;3952;48.364;16.022;2023-03-24T00:56:07;7.27;;;6.20;;
7813;SDS011;3952;48.364;16.022;2023-03-24T00:58:36;6.07;;;5.67;;
7813;SDS011;3952;48.364;16.022;2023-03-24T01:01:03;6.43;;;5.97;;
7813;SDS011;3952;48.364;16.022;2023-03-24T01:03:31;6.47;;;5.97;;
7813;SDS011;3952;48.364;16.022;2023-03-24T01:06:01;6.43;;;5.97;;
7813;SDS011;3952;48.364;16.022;2023-03-24T01:08:29;6.67;;;6.03;;
7813;SDS011;3952;48.364;16.022;2023-03-24T01:10:57;5.73;;;5.23;;
7813;SDS011;3952;48.364;16.022;2023-03-24T01:13:26;6.87;;;5.90;;
7813;SDS011;3952;48.364;16.022;2023-03-24T01:15:55;6.00;;;5.60;;
7813;SDS011;3952;48.364;16.022;2023-03-24T01:18:22;5.97;;;5.60;;
7813;SDS011;3952;48.364;16.022;2023-03-24T01:20:52;7.40;;;6.70;;
7813;SDS011;3952;48.364;16.022;2023-03-24T01:23:21;6.40;;;5.90;;
7813;SDS011;3952;48.364;16.022;2023-03-24T01:25:50;6.20;;;5.70;;
7813;SDS011;3952;48.364;16.022;2023-03-24T01:28:19;6.60;;;6.10;;
7813;SDS011;3952;48.364;16.022;2023-03-24T01:30:49;6.33;;;5.83;;
7813;SDS011;3952;48.364;16.022;2023-03-24T01:33:17;6.70;;;6.10;;
7813;SDS011;3952;48.364;16.022;2023-03-24T01:35:45;6.37;;;5.87;;
7813;SDS011;3952;48.364;16.022;2023-03-24T01:38:12;7.10;;;6.50;;
7813;SDS011;3952;48.364;16.022;2023-03-24T01:40:42;7.27;;;6.67;;
7813;SDS011;3952;48.364;16.022;2023-03-24T01:43:15;7.53;;;6.83;;
7813;SDS011;3952;48.364;16.022;2023-03-24T01:45:59;7.20;;;6.57;;
7813;SDS011;3952;48.364;16.022;2023-03-24T01:48:33;6.40;;;6.00;;
7813;SDS011;3952;48.364;16.022;2023-03-24T01:51:05;6.80;;;6.30;;
7813;SDS011;3952;48.364;16.022;2023-03-24T01:53:37;6.00;;;5.60;;
7813;SDS011;3952;48.364;16.022;2023-03-24T01:56:10;5.73;;;5.33;;
7813;SDS011;3952;48.364;16.022;2023-03-24T01:58:39;7.20;;;5.57;;
7813;SDS011;3952;48.364;16.022;2023-03-24T02:01:10;8.13;;;5.60;;
7813;SDS011;3952;48.364;16.022;2023-03-24T02:03:37;8.13;;;6.07;;
7813;SDS011;3952;48.364;16.022;2023-03-24T02:06:06;6.57;;;6.07;;
7813;SDS011;3952;48.364;16.022;2023-03-24T02:08:37;7.17;;;6.67;;
7813;SDS011;3952;48.364;16.022;2023-03-24T02:11:07;7.53;;;7.03;;
7813;SDS011;3952;48.364;16.022;2023-03-24T02:13:37;6.43;;;6.03;;
7813;SDS011;3952;48.364;16.022;2023-03-24T02:19:23;6.10;;;5.57;;
7813;SDS011;3952;48.364;16.022;2023-03-24T02:28:37;5.67;;;5.37;;
7813;SDS011;3952;48.364;16.022;2023-03-24T02:31:17;5.93;;;5.50;;
7813;SDS011;3952;48.364;16.022;2023-03-24T02:37:16;5.43;;;4.93;;
7813;SDS011;3952;48.364;16.022;2023-03-24T02:40:08;5.20;;;4.80;;
7813;SDS011;3952;48.364;16.022;2023-03-24T02:42:53;4.90;;;4.60;;
7813;SDS011;3952;48.364;16.022;2023-03-24T02:45:31;5.13;;;4.73;;
7813;SDS011;3952;48.364;16.022;2023-03-24T02:48:05;5.00;;;4.63;;
7813;SDS011;3952;48.364;16.022;2023-03-24T02:50:46;5.30;;;4.90;;
7813;SDS011;3952;48.364;16.022;2023-03-24T02:53:18;7.10;;;5.20;;
7813;SDS011;3952;48.364;16.022;2023-03-24T02:55:52;5.87;;;5.20;;
7813;SDS011;3952;48.364;16.022;2023-03-24T02:58:26;6.73;;;6.07;;
7813;SDS011;3952;48.364;16.022;2023-03-24T03:00:58;7.57;;;6.87;;
7813;SDS011;3952;48.364;16.022;2023-03-24T03:03:30;8.53;;;7.83;;
7813;SDS011;3952;48.364;16.022;2023-03-24T03:06:04;8.53;;;7.93;;
7813;SDS011;3952;48.364;16.022;2023-03-24T03:08:36;7.60;;;7.10;;
7813;SDS011;3952;48.364;16.022;2023-03-24T03:11:07;7.30;;;6.70;;
7813;SDS011;3952;48.364;16.022;2023-03-24T03:13:39;7.33;;;6.47;;
7813;SDS011;3952;48.364;16.022;2023-03-24T03:16:11;6.37;;;5.93;;
7813;SDS011;3952;48.364;16.022;2023-03-24T03:18:44;7.30;;;6.70;;
7813;SDS011;3952;48.364;16.022;2023-03-24T03:21:17;5.77;;;5.30;;
7813;SDS011;3952;48.364;16.022;2023-03-24T03:23:51;5.87;;;5.33;;
7813;SDS011;3952;48.364;16.022;2023-03-24T03:26:23;5.80;;;5.37;;
7813;SDS011;3952;48.364;16.022;2023-03-24T03:28:54;6.63;;;5.90;;
7813;SDS011;3952;48.364;16.022;2023-03-24T03:31:26;5.97;;;5.50;;
7813;SDS011;3952;48.364;16.022;2023-03-24T03:33:59;6.27;;;5.60;;
7813;SDS011;3952;48.364;16.022;2023-03-24T03:36:37;6.87;;;6.13;;
7813;SDS011;3952;48.364;16.022;2023-03-24T03:39:11;6.13;;;5.73;;
7813;SDS011;3952;48.364;16.022;2023-03-24T03:41:43;6.20;;;5.70;;
7813;SDS011;3952;48.364;16.022;2023-03-24T03:44:10;8.27;;;6.10;;
7813;SDS011;3952;48.364;16.022;2023-03-24T03:46:38;6.67;;;6.07;;
7813;SDS011;3952;48.364;16.022;2023-03-24T03:49:05;7.57;;;5.57;;
7813;SDS011;3952;48.364;16.022;2023-03-24T03:51:34;6.20;;;5.60;;
7813;SDS011;3952;48.364;16.022;2023-03-24T03:54:02;5.67;;;5.17;;
7813;SDS011;3952;48.364;16.022;2023-03-24T03:56:34;8.40;;;5.90;;
7813;SDS011;3952;48.364;16.022;2023-03-24T03:59:04;6.60;;;6.10;;
7813;SDS011;3952;48.364;16.022;2023-03-24T04:01:32;7.93;;;5.83;;
7813;SDS011;3952;48.364;16.022;2023-03-24T04:04:16;6.87;;;5.90;;
7813;SDS011;3952;48.364;16.022;2023-03-24T04:07:11;6.77;;;6.27;;
7813;SDS011;3952;48.364;16.022;2023-03-24T04:09:45;7.93;;;6.40;;
7813;SDS011;3952;48.364;16.022;2023-03-24T04:18:10;8.17;;;6.30;;
7813;SDS011;3952;48.364;16.022;2023-03-24T04:20:54;6.50;;;6.10;;
7813;SDS011;3952;48.364;16.022;2023-03-24T04:23:34;6.73;;;6.13;;
7813;SDS011;3952;48.364;16.022;2023-03-24T04:26:11;7.50;;;6.90;;
7813;SDS011;3952;48.364;16.022;2023-03-24T04:28:53;7.33;;;6.77;;
7813;SDS011;3952;48.364;16.022;2023-03-24T04:31:33;7.10;;;6.60;;
7813;SDS011;3952;48.364;16.022;2023-03-24T04:34:03;9.40;;;7.53;;
7813;SDS011;3952;48.364;16.022;2023-03-24T04:36:38;8.97;;;8.27;;
7813;SDS011;3952;48.364;16.022;2023-03-24T04:39:10;8.93;;;7.90;;
7813;SDS011;3952;48.364;16.022;2023-03-24T04:41:40;7.27;;;6.70;;
7813;SDS011;3952;48.364;16.022;2023-03-24T04:44:08;7.33;;;6.73;;
7813;SDS011;3952;48.364;16.022;2023-03-24T04:46:38;7.37;;;6.87;;
7813;SDS011;3952;48.364;16.022;2023-03-24T04:49:07;6.70;;;6.30;;
7813;SDS011;3952;48.364;16.022;2023-03-24T04:51:34;6.97;;;6.47;;
7813;SDS011;3952;48.364;16.022;2023-03-24T04:54:02;6.67;;;6.07;;
7813;SDS011;3952;48.364;16.022;2023-03-24T04:56:32;7.10;;;6.40;;
7813;SDS011;3952;48.364;16.022;2023-03-24T04:59:04;6.80;;;6.13;;
7813;SDS011;3952;48.364;16.022;2023-03-24T05:01:32;7.30;;;6.60;;
7813;SDS011;3952;48.364;16.022;2023-03-24T05:04:03;6.37;;;5.87;;
7813;SDS011;3952;48.364;16.022;2023-03-24T05:06:30;6.83;;;6.13;;
7813;SDS011;3952;48.364;16.022;2023-03-24T05:08:58;9.83;;;6.83;;
7813;SDS011;3952;48.364;16.022;2023-03-24T05:11:25;6.10;;;5.70;;
7813;SDS011;3952;48.364;16.022;2023-03-24T05:13:53;6.97;;;6.37;;
7813;SDS011;3952;48.364;16.022;2023-03-24T05:16:23;6.73;;;6.23;;
7813;SDS011;3952;48.364;16.022;2023-03-24T05:18:50;6.90;;;6.50;;
7813;SDS011;3952;48.364;16.022;2023-03-24T05:21:18;7.47;;;6.77;;
7813;SDS011;3952;48.364;16.022;2023-03-24T05:23:46;8.03;;;7.33;;
7813;SDS011;3952;48.364;16.022;2023-03-24T05:26:13;8.23;;;7.43;;
7813;SDS011;3952;48.364;16.022;2023-03-24T05:28:40;8.87;;;8.30;;
7813;SDS011;3952;48.364;16.022;2023-03-24T05:31:07;10.80;;;10.10;;
7813;SDS011;3952;48.364;16.022;2023-03-24T05:33:35;9.20;;;8.60;;
7813;SDS011;3952;48.364;16.022;2023-03-24T05:36:02;7.80;;;7.30;;
7813;SDS011;3952;48.364;16.022;2023-03-24T05:38:32;7.63;;;7.07;;
7813;SDS011;3952;48.364;16.022;2023-03-24T05:40:59;8.10;;;7.33;;
7813;SDS011;3952;48.364;16.022;2023-03-24T05:43:27;10.63;;;7.50;;
7813;SDS011;3952;48.364;16.022;2023-03-24T05:45:54;8.60;;;7.87;;
7813;SDS011;3952;48.364;16.022;2023-03-24T05:48:21;8.10;;;7.50;;
7813;SDS011;3952;48.364;16.022;2023-03-24T05:50:49;8.30;;;7.70;;
7813;SDS011;3952;48.364;16.022;2023-03-24T05:53:17;7.20;;;6.73;;
7813;SDS011;3952;48.364;16.022;2023-03-24T05:55:46;9.40;;;8.23;;
7813;SDS011;3952;48.364;16.022;2023-03-24T05:58:13;12.27;;;8.50;;
7813;SDS011;3952;48.364;16.022;2023-03-24T06:00:41;11.20;;;9.20;;
7813;SDS011;3952;48.364;16.022;2023-03-24T06:03:08;10.13;;;9.07;;
7813;SDS011;3952;48.364;16.022;2023-03-24T06:05:38;15.97;;;9.20;;
7813;SDS011;3952;48.364;16.022;2023-03-24T06:08:05;11.50;;;8.97;;
7813;SDS011;3952;48.364;16.022;2023-03-24T06:10:34;17.37;;;9.67;;
7813;SDS011;3952;48.364;16.022;2023-03-24T06:13:03;15.67;;;9.53;;
7813;SDS011;3952;48.364;16.022;2023-03-24T06:15:32;10.87;;;9.73;;
7813;SDS011;3952;48.364;16.022;2023-03-24T06:18:00;10.13;;;9.17;;
7813;SDS011;3952;48.364;16.022;2023-03-24T06:20:29;10.00;;;9.03;;
7813;SDS011;3952;48.364;16.022;2023-03-24T06:22:56;10.37;;;9.37;;
7813;SDS011;3952;48.364;16.022;2023-03-24T06:25:23;10.70;;;9.67;;
7813;SDS011;3952;48.364;16.022;2023-03-24T06:27:52;9.17;;;8.53;;
7813;SDS011;3952;48.364;16.022;2023-03-24T06:30:21;14.03;;;9.17;;
7813;SDS011;3952;48.364;16.022;2023-03-24T06:32:48;10.80;;;8.23;;
7813;SDS011;3952;48.364;16.022;2023-03-24T06:35:15;9.23;;;8.53;;
7813;SDS011;3952;48.364;16.022;2023-03-24T06:37:43;11.60;;;8.33;;
7813;SDS011;3952;48.364;16.022;2023-03-24T06:40:11;9.00;;;8.40;;
7813;SDS011;3952;48.364;16.022;2023-03-24T06:42:41;9.47;;;8.57;;
7813;SDS011;3952;48.364;16.022;2023-03-24T06:45:09;9.83;;;8.93;;
7813;SDS011;3952;48.364;16.022;2023-03-24T06:47:38;10.03;;;9.00;;
7813;SDS011;3952;48.364;16.022;2023-03-24T06:50:05;9.93;;;9.13;;
7813;SDS011;3952;48.364;16.022;2023-03-24T06:52:33;14.23;;;9.57;;
7813;SDS011;3952;48.364;16.022;2023-03-24T06:55:01;9.77;;;8.97;;
7813;SDS011;3952;48.364;16.022;2023-03-24T06:57:30;11.37;;;10.07;;
7813;SDS011;3952;48.364;16.022;2023-03-24T06:59:57;11.43;;;10.30;;
7813;SDS011;3952;48.364;16.022;2023-03-24T07:02:25;12.27;;;11.07;;
7813;SDS011;3952;48.364;16.022;2023-03-24T07:04:59;13.87;;;12.43;;
7813;SDS011;3952;48.364;16.022;2023-03-24T07:07:30;14.63;;;13.53;;
7813;SDS011;3952;48.364;16.022;2023-03-24T07:09:57;15.23;;;13.93;;
7813;SDS011;3952;48.364;16.022;2023-03-24T07:12:25;15.50;;;14.10;;
7813;SDS011;3952;48.364;16.022;2023-03-24T07:14:52;17.60;;;15.00;;
7813;SDS011;3952;48.364;16.022;2023-03-24T07:17:20;17.23;;;15.13;;
7813;SDS011;3952;48.364;16.022;2023-03-24T07:19:47;17.80;;;16.10;;
7813;SDS011;3952;48.364;16.022;2023-03-24T07:22:16;18.17;;;14.90;;
7813;SDS011;3952;48.364;16.022;2023-03-24T07:24:43;20.57;;;15.97;;
7813;SDS011;3952;48.364;16.022;2023-03-24T07:27:10;23.77;;;16.50;;
7813;SDS011;3952;48.364;16.022;2023-03-24T07:29:37;21.30;;;16.87;;
7813;SDS011;3952;48.364;16.022;2023-03-24T07:32:04;18.70;;;16.80;;
7813;SDS011;3952;48.364;16.022;2023-03-24T07:34:32;18.03;;;15.87;;
7813;SDS011;3952;48.364;16.022;2023-03-24T07:37:01;21.03;;;17.10;;
7813;SDS011;3952;48.364;16.022;2023-03-24T07:39:29;19.53;;;16.63;;
7813;SDS011;3952;48.364;16.022;2023-03-24T07:41:57;27.97;;;17.03;;
7813;SDS011;3952;48.364;16.022;2023-03-24T07:44:24;17.17;;;15.43;;
7813;SDS011;3952;48.364;16.022;2023-03-24T07:46:51;17.67;;;16.07;;
7813;SDS011;3952;48.364;16.022;2023-03-24T07:49:19;16.57;;;15.27;;
7813;SDS011;3952;48.364;16.022;2023-03-24T07:51:46;16.80;;;15.00;;
7813;SDS011;3952;48.364;16.022;2023-03-24T07:54:13;16.40;;;14.87;;
7813;SDS011;3952;48.364;16.022;2023-03-24T07:56:42;16.87;;;15.23;;
7813;SDS011;3952;48.364;16.022;2023-03-24T07:59:09;16.20;;;14.80;;
7813;SDS011;3952;48.364;16.022;2023-03-24T08:01:36;16.93;;;15.13;;
7813;SDS011;3952;48.364;16.022;2023-03-24T08:04:04;15.63;;;14.20;;
7813;SDS011;3952;48.364;16.022;2023-03-24T08:06:31;16.83;;;14.97;;
7813;SDS011;3952;48.364;16.022;2023-03-24T08:08:58;13.97;;;12.97;;
7813;SDS011;3952;48.364;16.022;2023-03-24T08:11:26;15.23;;;13.93;;
7813;SDS011;3952;48.364;16.022;2023-03-24T08:13:54;16.33;;;14.80;;
7813;SDS011;3952;48.364;16.022;2023-03-24T08:16:22;16.67;;;14.97;;
7813;SDS011;3952;48.364;16.022;2023-03-24T08:18:50;15.53;;;14.23;;
7813;SDS011;3952;48.364;16.022;2023-03-24T08:21:17;15.53;;;14.23;;
7813;SDS011;3952;48.364;16.022;2023-03-24T08:23:44;16.20;;;14.90;;
7813;SDS011;3952;48.364;16.022;2023-03-24T08:26:11;15.10;;;13.90;;
7813;SDS011;3952;48.364;16.022;2023-03-24T08:28:39;14.83;;;13.60;;
7813;SDS011;3952;48.364;16.022;2023-03-24T08:31:08;16.73;;;15.13;;
7813;SDS011;3952;48.364;16.022;2023-03-24T08:33:35;16.20;;;14.53;;
7813;SDS011;3952;48.364;16.022;2023-03-24T08:36:02;15.67;;;14.10;;
7813;SDS011;3952;48.364;16.022;2023-03-24T08:38:30;16.07;;;14.40;;
7813;SDS011;3952;48.364;16.022;2023-03-24T08:40:58;15.27;;;13.80;;
7813;SDS011;3952;48.364;16.022;2023-03-24T08:43:26;14.90;;;13.60;;
7813;SDS011;3952;48.364;16.022;2023-03-24T08:45:54;14.73;;;13.57;;
7813;SDS011;3952;48.364;16.022;2023-03-24T08:48:24;15.73;;;14.13;;
7813;SDS011;3952;48.364;16.022;2023-03-24T08:50:51;15.77;;;14.57;;
7813;SDS011;3952;48.364;16.022;2023-03-24T08:53:19;14.33;;;13.10;;
7813;SDS011;3952;48.364;16.022;2023-03-24T08:55:47;15.10;;;13.80;;
7813;SDS011;3952;48.364;16.022;2023-03-24T08:58:14;16.17;;;14.67;;
7813;SDS011;3952;48.364;16.022;2023-03-24T09:00:43;15.87;;;14.33;;
7813;SDS011;3952;48.364;16.022;2023-03-24T09:03:11;14.10;;;12.80;;
7813;SDS011;3952;48.364;16.022;2023-03-24T09:05:43;14.67;;;13.27;;
7813;SDS011;3952;48.364;16.022;2023-03-24T09:08:12;14.37;;;13.27;;
7813;SDS011;3952;48.364;16.022;2023-03-24T09:10:43;14.87;;;13.77;;
7813;SDS011;3952;48.364;16.022;2023-03-24T09:13:11;14.73;;;13.37;;
7813;SDS011;3952;48.364;16.022;2023-03-24T09:15:39;15.43;;;14.03;;
7813;SDS011;3952;48.364;16.022;2023-03-24T09:18:11;15.83;;;14.23;;
7813;SDS011;3952;48.364;16.022;2023-03-24T09:20:38;15.47;;;14.07;;
7813;SDS011;3952;48.364;16.022;2023-03-24T09:23:07;15.97;;;14.43;;
7813;SDS011;3952;48.364;16.022;2023-03-24T09:25:34;16.67;;;15.10;;
7813;SDS011;3952;48.364;16.022;2023-03-24T09:28:01;14.77;;;13.60;;
7813;SDS011;3952;48.364;16.022;2023-03-24T09:30:29;15.57;;;14.37;;
7813;SDS011;3952;48.364;16.022;2023-03-24T09:32:56;14.50;;;13.33;;
7813;SDS011;3952;48.364;16.022;2023-03-24T09:35:24;15.30;;;14.13;;
7813;SDS011;3952;48.364;16.022;2023-03-24T09:37:51;15.27;;;13.47;;
7813;SDS011;3952;48.364;16.022;2023-03-24T09:40:21;16.57;;;15.07;;
7813;SDS011;3952;48.364;16.022;2023-03-24T09:42:51;13.10;;;12.07;;
7813;SDS011;3952;48.364;16.022;2023-03-24T09:45:22;11.87;;;11.03;;
7813;SDS011;3952;48.364;16.022;2023-03-24T09:47:54;12.77;;;11.53;;
7813;SDS011;3952;48.364;16.022;2023-03-24T09:50:24;13.63;;;11.93;;
7813;SDS011;3952;48.364;16.022;2023-03-24T09:52:55;11.03;;;10.00;;
7813;SDS011;3952;48.364;16.022;2023-03-24T09:55:30;12.37;;;11.13;;
7813;SDS011;3952;48.364;16.022;2023-03-24T09:57:59;11.63;;;10.43;;
7813;SDS011;3952;48.364;16.022;2023-03-24T10:00:32;11.33;;;10.33;;
7813;SDS011;3952;48.364;16.022;2023-03-24T10:03:00;10.10;;;9.10;;
7813;SDS011;3952;48.364;16.022;2023-03-24T10:05:40;9.27;;;8.40;;
7813;SDS011;3952;48.364;16.022;2023-03-24T10:08:11;9.40;;;8.60;;
7813;SDS011;3952;48.364;16.022;2023-03-24T10:10:47;9.67;;;8.77;;
7813;SDS011;3952;48.364;16.022;2023-03-24T10:13:24;8.93;;;8.17;;
7813;SDS011;3952;48.364;16.022;2023-03-24T10:15:58;11.30;;;9.20;;
7813;SDS011;3952;48.364;16.022;2023-03-24T10:18:33;11.63;;;7.87;;
7813;SDS011;3952;48.364;16.022;2023-03-24T10:21:06;8.80;;;8.03;;
7813;SDS011;3952;48.364;16.022;2023-03-24T10:23:44;8.60;;;8.00;;
7813;SDS011;3952;48.364;16.022;2023-03-24T10:26:22;8.40;;;7.70;;
7813;SDS011;3952;48.364;16.022;2023-03-24T10:29:00;8.87;;;8.17;;
7813;SDS011;3952;48.364;16.022;2023-03-24T10:31:37;9.20;;;8.30;;
7813;SDS011;3952;48.364;16.022;2023-03-24T10:34:07;8.00;;;7.37;;
7813;SDS011;3952;48.364;16.022;2023-03-24T10:36:36;9.80;;;8.30;;
7813;SDS011;3952;48.364;16.022;2023-03-24T10:39:04;8.63;;;7.83;;
7813;SDS011;3952;48.364;16.022;2023-03-24T10:41:32;8.47;;;7.37;;
7813;SDS011;3952;48.364;16.022;2023-03-24T10:44:01;8.27;;;7.27;;
7813;SDS011;3952;48.364;16.022;2023-03-24T10:46:29;8.73;;;6.70;;
7813;SDS011;3952;48.364;16.022;2023-03-24T10:49:06;7.97;;;7.47;;
7813;SDS011;3952;48.364;16.022;2023-03-24T10:51:34;10.73;;;7.37;;
7813;SDS011;3952;48.364;16.022;2023-03-24T10:54:09;7.63;;;7.00;;
7813;SDS011;3952;48.364;16.022;2023-03-24T10:56:39;11.27;;;7.80;;
7813;SDS011;3952;48.364;16.022;2023-03-24T10:59:20;8.23;;;7.20;;
7813;SDS011;3952;48.364;16.022;2023-03-24T11:01:54;7.97;;;7.37;;
7813;SDS011;3952;48.364;16.022;2023-03-24T11:04:25;10.47;;;7.23;;
7813;SDS011;3952;48.364;16.022;2023-03-24T11:06:56;7.53;;;7.00;;
7813;SDS011;3952;48.364;16.022;2023-03-24T11:09:37;6.70;;;6.23;;
7813;SDS011;3952;48.364;16.022;2023-03-24T11:12:14;7.30;;;6.70;;
7813;SDS011;3952;48.364;16.022;2023-03-24T11:14:49;8.13;;;7.13;;
7813;SDS011;3952;48.364;16.022;2023-03-24T11:17:25;7.17;;;6.60;;
7813;SDS011;3952;48.364;16.022;2023-03-24T11:19:54;7.33;;;6.73;;
7813;SDS011;3952;48.364;16.022;2023-03-24T11:22:22;7.33;;;6.70;;
7813;SDS011;3952;48.364;16.022;2023-03-24T11:24:51;7.43;;;6.93;;
7813;SDS011;3952;48.364;16.022;2023-03-24T11:27:23;7.63;;;7.03;;
7813;SDS011;3952;48.364;16.022;2023-03-24T11:29:51;8.03;;;6.93;;
7813;SDS011;3952;48.364;16.022;2023-03-24T11:32:22;7.93;;;7.33;;
7813;SDS011;3952;48.364;16.022;2023-03-24T11:34:56;7.10;;;6.50;;
7813;SDS011;3952;48.364;16.022;2023-03-24T11:37:29;7.70;;;7.00;;
7813;SDS011;3952;48.364;16.022;2023-03-24T11:40:13;7.67;;;7.07;;
7813;SDS011;3952;48.364;16.022;2023-03-24T11:42:44;6.73;;;6.33;;
7813;SDS011;3952;48.364;16.022;2023-03-24T11:48:03;8.40;;;7.80;;
7813;SDS011;3952;48.364;16.022;2023-03-24T11:50:39;7.40;;;6.70;;
7813;SDS011;3952;48.364;16.022;2023-03-24T11:53:09;8.33;;;7.67;;
7813;SDS011;3952;48.364;16.022;2023-03-24T11:55:42;7.50;;;6.80;;
7813;SDS011;3952;48.364;16.022;2023-03-24T11:58:17;7.97;;;7.30;;
7813;SDS011;3952;48.364;16.022;2023-03-24T12:00:54;8.27;;;7.57;;
7813;SDS011;3952;48.364;16.022;2023-03-24T12:06:24;8.17;;;7.57;;
7813;SDS011;3952;48.364;16.022;2023-03-24T12:09:01;7.93;;;7.20;;
7813;SDS011;3952;48.364;16.022;2023-03-24T12:11:58;7.40;;;6.90;;
7813;SDS011;3952;48.364;16.022;2023-03-24T12:14:41;7.37;;;6.87;;
7813;SDS011;3952;48.364;16.022;2023-03-24T12:17:16;8.70;;;7.90;;
7813;SDS011;3952;48.364;16.022;2023-03-24T12:22:43;7.53;;;6.83;;
7813;SDS011;3952;48.364;16.022;2023-03-24T12:28:12;9.43;;;7.40;;
7813;SDS011;3952;48.364;16.022;2023-03-24T12:30:52;7.57;;;6.80;;
7813;SDS011;3952;48.364;16.022;2023-03-24T12:33:28;8.97;;;7.33;;
7813;SDS011;3952;48.364;16.022;2023-03-24T12:36:10;8.93;;;6.57;;
7813;SDS011;3952;48.364;16.022;2023-03-24T12:38:51;8.17;;;7.57;;
7813;SDS011;3952;48.364;16.022;2023-03-24T12:41:40;8.57;;;7.33;;
7813;SDS011;3952;48.364;16.022;2023-03-24T12:44:26;7.60;;;6.50;;
7813;SDS011;3952;48.364;16.022;2023-03-24T12:47:26;7.50;;;6.77;;
7813;SDS011;3952;48.364;16.022;2023-03-24T12:50:08;6.10;;;5.70;;
7813;SDS011;3952;48.364;16.022;2023-03-24T12:52:49;9.53;;;6.47;;
7813;SDS011;3952;48.364;16.022;2023-03-24T12:55:24;9.00;;;6.23;;
7813;SDS011;3952;48.364;16.022;2023-03-24T12:57:59;10.03;;;7.33;;
7813;SDS011;3952;48.364;16.022;2023-03-24T13:00:34;7.47;;;6.33;;
7813;SDS011;3952;48.364;16.022;2023-03-24T13:03:08;9.82;;;6.55;;
7813;SDS011;3952;48.364;16.022;2023-03-24T13:05:40;7.00;;;6.40;;
7813;SDS011;3952;48.364;16.022;2023-03-24T13:08:13;7.90;;;6.50;;
7813;SDS011;3952;48.364;16.022;2023-03-24T13:10:47;7.03;;;6.53;;
7813;SDS011;3952;48.364;16.022;2023-03-24T13:13:19;7.47;;;6.70;;
7813;SDS011;3952;48.364;16.022;2023-03-24T13:15:48;9.27;;;7.00;;
7813;SDS011;3952;48.364;16.022;2023-03-24T13:18:25;6.73;;;6.23;;
7813;SDS011;3952;48.364;16.022;2023-03-24T13:20:58;8.90;;;6.78;;
7813;SDS011;3952;48.364;16.022;2023-03-24T13:23:33;6.70;;;6.10;;
7813;SDS011;3952;48.364;16.022;2023-03-24T13:26:19;7.50;;;6.80;;
7813;SDS011;3952;48.364;16.022;2023-03-24T13:28:56;7.20;;;6.60;;
7813;SDS011;3952;48.364;16.022;2023-03-24T13:31:33;8.05;;;7.28;;
7813;SDS011;3952;48.364;16.022;2023-03-24T13:34:08;9.00;;;6.60;;
7813;SDS011;3952;48.364;16.022;2023-03-24T13:36:46;8.65;;;6.57;;
7813;SDS011;3952;48.364;16.022;2023-03-24T13:39:17;9.73;;;7.30;;
7813;SDS011;3952;48.364;16.022;2023-03-24T13:41:47;8.70;;;6.63;;
7813;SDS011;3952;48.364;16.022;2023-03-24T13:44:18;14.25;;;7.10;;
7813;SDS011;3952;48.364;16.022;2023-03-24T13:49:43;8.13;;;7.17;;
7813;SDS011;3952;48.364;16.022;2023-03-24T13:52:20;8.27;;;7.47;;
7813;SDS011;3952;48.364;16.022;2023-03-24T13:54:52;9.47;;;7.50;;
7813;SDS011;3952;48.364;16.022;2023-03-24T13:57:23;8.93;;;8.07;;
7813;SDS011;3952;48.364;16.022;2023-03-24T14:00:03;8.60;;;7.80;;
7813;SDS011;3952;48.364;16.022;2023-03-24T14:02:44;11.27;;;7.87;;
7813;SDS011;3952;48.364;16.022;2023-03-24T14:05:31;8.53;;;7.73;;
7813;SDS011;3952;48.364;16.022;2023-03-24T14:08:33;8.27;;;7.67;;
7813;SDS011;3952;48.364;16.022;2023-03-24T14:11:08;8.20;;;7.50;;
7813;SDS011;3952;48.364;16.022;2023-03-24T14:13:51;11.40;;;7.53;;
7813;SDS011;3952;48.364;16.022;2023-03-24T14:16:26;7.87;;;7.23;;
7813;SDS011;3952;48.364;16.022;2023-03-24T14:19:17;8.27;;;6.63;;
7813;SDS011;3952;48.364;16.022;2023-03-24T14:21:54;8.10;;;7.40;;
7813;SDS011;3952;48.364;16.022;2023-03-24T14:24:25;7.77;;;7.00;;
7813;SDS011;3952;48.364;16.022;2023-03-24T14:26:54;6.53;;;6.03;;
7813;SDS011;3952;48.364;16.022;2023-03-24T14:29:38;6.20;;;5.80;;
7813;SDS011;3952;48.364;16.022;2023-03-24T14:32:13;6.53;;;5.93;;
7813;SDS011;3952;48.364;16.022;2023-03-24T14:34:53;7.10;;;5.30;;
7813;SDS011;3952;48.364;16.022;2023-03-24T14:37:24;7.30;;;6.30;;
7813;SDS011;3952;48.364;16.022;2023-03-24T14:39:52;6.50;;;5.97;;
7813;SDS011;3952;48.364;16.022;2023-03-24T14:42:26;6.10;;;5.60;;
7813;SDS011;3952;48.364;16.022;2023-03-24T14:48:05;7.10;;;4.00;;
7813;SDS011;3952;48.364;16.022;2023-03-24T14:50:47;4.67;;;4.37;;
7813;SDS011;3952;48.364;16.022;2023-03-24T14:53:17;5.83;;;3.90;;
7813;SDS011;3952;48.364;16.022;2023-03-24T14:55:46;4.27;;;4.03;;
7813;SDS011;3952;48.364;16.022;2023-03-24T14:58:17;4.57;;;4.27;;
7813;SDS011;3952;48.364;16.022;2023-03-24T15:00:49;5.10;;;4.60;;
7813;SDS011;3952;48.364;16.022;2023-03-24T15:03:20;5.17;;;4.77;;
7813;SDS011;3952;48.364;16.022;2023-03-24T15:06:02;2.23;;;1.03;;
7813;SDS011;3952;48.364;16.022;2023-03-24T15:08:44;2.57;;;0.80;;
7813;SDS011;3952;48.364;16.022;2023-03-24T15:11:16;1.07;;;0.83;;
7813;SDS011;3952;48.364;16.022;2023-03-24T15:13:47;0.77;;;0.77;;
7813;SDS011;3952;48.364;16.022;2023-03-24T15:16:17;1.80;;;1.03;;
7813;SDS011;3952;48.364;16.022;2023-03-24T15:18:47;0.90;;;0.90;;
7813;SDS011;3952;48.364;16.022;2023-03-24T15:21:21;0.97;;;0.83;;
7813;SDS011;3952;48.364;16.022;2023-03-24T15:23:51;0.93;;;0.93;;
7813;SDS011;3952;48.364;16.022;2023-03-24T15:26:19;0.90;;;0.90;;
7813;SDS011;3952;48.364;16.022;2023-03-24T15:28:57;1.17;;;1.17;;
7813;SDS011;3952;48.364;16.022;2023-03-24T15:31:26;1.10;;;1.10;;
7813;SDS011;3952;48.364;16.022;2023-03-24T15:34:05;1.40;;;1.00;;
7813;SDS011;3952;48.364;16.022;2023-03-24T15:36:51;0.77;;;0.77;;
7813;SDS011;3952;48.364;16.022;2023-03-24T15:39:21;0.90;;;0.90;;
7813;SDS011;3952;48.364;16.022;2023-03-24T15:41:52;0.90;;;0.90;;
7813;SDS011;3952;48.364;16.022;2023-03-24T15:44:19;0.77;;;0.73;;
7813;SDS011;3952;48.364;16.022;2023-03-24T15:46:49;1.00;;;1.00;;
7813;SDS011;3952;48.364;16.022;2023-03-24T15:49:24;0.83;;;0.83;;
7813;SDS011;3952;48.364;16.022;2023-03-24T15:51:55;1.20;;;1.10;;
7813;SDS011;3952;48.364;16.022;2023-03-24T15:54:27;1.10;;;1.10;;
7813;SDS011;3952;48.364;16.022;2023-03-24T15:57:00;1.20;;;1.20;;
7813;SDS011;3952;48.364;16.022;2023-03-24T15:59:42;2.27;;;1.20;;